createdAt,value
2023-02-06T00:01:03.017Z,1.60
2023-02-06T00:03:29.737Z,1.50
2023-02-06T00:05:58.305Z,1.50
2023-02-06T00:08:26.175Z,1.50
2023-02-06T00:10:53.655Z,1.50
2023-02-06T00:13:20.926Z,1.50
2023-02-06T00:15:47.944Z,1.50
2023-02-06T00:18:14.858Z,1.60
2023-02-06T00:20:41.568Z,1.60
2023-02-06T00:23:08.290Z,1.60
2023-02-06T00:25:35.246Z,1.60
2023-02-06T00:28:02.169Z,1.50
2023-02-06T00:30:29.024Z,1.50
2023-02-06T00:32:55.743Z,1.60
2023-02-06T00:35:22.614Z,1.60
2023-02-06T00:37:50.345Z,1.60
2023-02-06T00:40:17.742Z,1.50
2023-02-06T00:42:44.497Z,1.50
2023-02-06T00:45:11.353Z,1.50
2023-02-06T00:47:38.261Z,1.40
2023-02-06T00:50:05.690Z,1.40
2023-02-06T00:52:32.517Z,1.40
2023-02-06T00:54:59.224Z,1.40
2023-02-06T00:57:25.923Z,1.30
2023-02-06T00:59:52.652Z,1.30
2023-02-06T01:02:19.376Z,1.20
2023-02-06T01:04:46.111Z,1.30
2023-02-06T01:07:12.890Z,1.20
2023-02-06T01:09:39.586Z,1.20
2023-02-06T01:12:06.478Z,1.20
2023-02-06T01:14:33.187Z,1.20
2023-02-06T01:16:59.918Z,1.20
2023-02-06T01:19:26.706Z,1.20
2023-02-06T01:21:53.402Z,1.20
2023-02-06T01:24:20.085Z,1.20
2023-02-06T01:26:46.818Z,1.20
2023-02-06T01:29:13.564Z,1.20
2023-02-06T01:31:40.349Z,1.30
2023-02-06T01:34:07.095Z,1.20
2023-02-06T01:36:33.869Z,1.30
2023-02-06T01:39:00.802Z,1.30
2023-02-06T01:41:27.508Z,1.20
2023-02-06T01:44:13.293Z,1.20
2023-02-06T01:46:42.121Z,1.20
2023-02-06T01:49:13.923Z,1.20
2023-02-06T01:51:41.404Z,1.20
2023-02-06T01:54:09.936Z,1.30
2023-02-06T01:56:47.268Z,1.20
2023-02-06T01:59:14.107Z,1.20
2023-02-06T02:01:41.158Z,1.30
2023-02-06T02:04:14.697Z,1.20
2023-02-06T02:06:41.896Z,1.20
2023-02-06T02:09:09.088Z,1.10
2023-02-06T02:11:39.783Z,1.10
2023-02-06T02:14:09.032Z,1.00
2023-02-06T02:16:48.311Z,0.90
2023-02-06T02:19:39.661Z,0.90
2023-02-06T02:22:54.648Z,0.80
2023-02-06T02:25:39.865Z,0.80
2023-02-06T02:28:28.193Z,0.80
2023-02-06T02:31:31.245Z,0.80
2023-02-06T02:34:51.686Z,0.80
2023-02-06T02:37:44.557Z,0.80
2023-02-06T02:40:35.981Z,1.00
2023-02-06T02:43:19.718Z,0.90
2023-02-06T02:45:55.819Z,0.80
2023-02-06T02:48:33.159Z,0.80
2023-02-06T02:51:00.848Z,0.70
2023-02-06T02:53:28.193Z,0.60
2023-02-06T02:55:55.092Z,0.60
2023-02-06T02:58:26.585Z,0.60
2023-02-06T03:01:03.511Z,0.60
2023-02-06T03:03:33.226Z,0.60
2023-02-06T03:06:05.650Z,0.60
2023-02-06T03:08:41.902Z,0.60
2023-02-06T03:11:17.247Z,0.70
2023-02-06T03:13:47.074Z,0.70
2023-02-06T03:16:19.893Z,0.60
2023-02-06T03:18:56.730Z,0.60
2023-02-06T03:21:25.186Z,0.60
2023-02-06T03:23:55.796Z,0.50
2023-02-06T03:26:26.858Z,0.60
2023-02-06T03:29:00.771Z,0.60
2023-02-06T03:31:52.561Z,0.80
2023-02-06T03:34:44.309Z,0.80
2023-02-06T03:37:11.985Z,0.90
2023-02-06T03:39:39.738Z,0.80
2023-02-06T03:42:10.408Z,0.90
2023-02-06T03:44:42.017Z,0.80
2023-02-06T03:47:10.389Z,0.80
2023-02-06T03:49:39.630Z,0.70
2023-02-06T03:52:10.159Z,0.70
2023-02-06T03:54:41.965Z,0.60
2023-02-06T03:57:12.528Z,0.50
2023-02-06T03:59:39.372Z,0.40
2023-02-06T04:02:06.654Z,0.40
2023-02-06T04:04:41.913Z,0.30
2023-02-06T04:07:23.349Z,0.30
2023-02-06T04:09:50.199Z,0.20
2023-02-06T04:12:17.519Z,0.20
2023-02-06T04:14:44.784Z,0.20
2023-02-06T04:17:12.446Z,0.10
2023-02-06T04:19:39.662Z,0.00
2023-02-06T04:22:08.413Z,0.00
2023-02-06T04:24:35.372Z,0.00
2023-02-06T04:27:02.365Z,-0.10
2023-02-06T04:29:29.457Z,-0.10
2023-02-06T04:31:56.189Z,-0.10
2023-02-06T04:34:23.142Z,-0.10
2023-02-06T04:36:49.866Z,-0.20
2023-02-06T04:39:16.623Z,-0.20
2023-02-06T04:41:43.310Z,-0.20
2023-02-06T04:44:10.050Z,-0.30
2023-02-06T04:46:36.790Z,-0.30
2023-02-06T04:49:04.130Z,-0.30
2023-02-06T04:51:30.955Z,-0.30
2023-02-06T04:53:57.629Z,-0.40
2023-02-06T04:56:24.361Z,-0.40
2023-02-06T04:58:51.379Z,-0.40
2023-02-06T05:01:18.549Z,-0.50
2023-02-06T05:03:45.762Z,-0.50
2023-02-06T05:06:13.161Z,-0.50
2023-02-06T05:08:40.070Z,-0.50
2023-02-06T05:11:06.975Z,-0.50
2023-02-06T05:13:34.251Z,-0.60
2023-02-06T05:16:12.712Z,-0.60
2023-02-06T05:18:40.342Z,-0.60
2023-02-06T05:21:08.113Z,-0.60
2023-02-06T05:23:34.813Z,-0.70
2023-02-06T05:26:02.023Z,-0.80
2023-02-06T05:28:29.219Z,-0.80
2023-02-06T05:30:57.032Z,-0.80
2023-02-06T05:33:24.197Z,-0.80
2023-02-06T05:35:50.901Z,-0.80
2023-02-06T05:38:18.148Z,-0.80
2023-02-06T05:40:45.453Z,-0.90
2023-02-06T05:43:12.489Z,-0.90
2023-02-06T05:45:39.598Z,-0.90
2023-02-06T05:48:06.852Z,-0.90
2023-02-06T05:50:34.479Z,-1.00
2023-02-06T05:53:01.349Z,-1.00
2023-02-06T05:55:28.321Z,-1.10
2023-02-06T05:57:55.111Z,-1.10
2023-02-06T06:00:21.967Z,-1.20
2023-02-06T06:02:48.953Z,-1.20
2023-02-06T06:05:15.868Z,-1.20
2023-02-06T06:07:42.822Z,-1.10
2023-02-06T06:10:12.122Z,-1.20
2023-02-06T06:12:39.776Z,-1.20
2023-02-06T06:15:07.168Z,-1.30
2023-02-06T06:17:34.033Z,-1.20
2023-02-06T06:20:01.255Z,-1.20
2023-02-06T06:22:28.211Z,-1.30
2023-02-06T06:24:54.969Z,-1.30
2023-02-06T06:27:21.680Z,-1.40
2023-02-06T06:29:48.559Z,-1.40
2023-02-06T06:32:15.684Z,-1.30
2023-02-06T06:34:42.720Z,-1.40
2023-02-06T06:37:09.767Z,-1.40
2023-02-06T06:39:36.498Z,-1.50
2023-02-06T06:42:03.446Z,-1.50
2023-02-06T06:44:32.480Z,-1.60
2023-02-06T06:46:59.325Z,-1.60
2023-02-06T06:49:27.787Z,-1.60
2023-02-06T06:51:55.599Z,-1.60
2023-02-06T06:54:22.263Z,-1.60
2023-02-06T06:56:48.971Z,-1.60
2023-02-06T06:59:15.767Z,-1.60
2023-02-06T07:01:42.491Z,-1.70
2023-02-06T07:04:09.263Z,-1.60
2023-02-06T07:06:35.961Z,-1.60
2023-02-06T07:09:02.947Z,-1.60
2023-02-06T07:11:29.840Z,-1.60
2023-02-06T07:13:56.686Z,-1.60
2023-02-06T07:16:23.571Z,-1.60
2023-02-06T07:18:51.128Z,-1.60
2023-02-06T07:21:18.437Z,-1.50
2023-02-06T07:23:45.682Z,-1.50
2023-02-06T07:26:12.397Z,-1.50
2023-02-06T07:28:39.580Z,-1.50
2023-02-06T07:31:08.061Z,-1.40
2023-02-06T07:33:35.090Z,-1.30
2023-02-06T07:36:03.887Z,-1.10
2023-02-06T07:38:31.223Z,-1.00
2023-02-06T07:41:01.874Z,-0.90
2023-02-06T07:43:28.891Z,-0.80
2023-02-06T07:46:00.169Z,-0.80
2023-02-06T07:48:27.743Z,-0.80
2023-02-06T07:50:54.471Z,-0.80
2023-02-06T07:53:21.406Z,-0.70
2023-02-06T07:55:48.482Z,-0.80
2023-02-06T07:58:15.397Z,-0.80
2023-02-06T08:00:45.857Z,-0.70
2023-02-06T08:03:15.381Z,-0.60
2023-02-06T08:05:42.269Z,-0.60
2023-02-06T08:08:09.331Z,-0.50
2023-02-06T08:10:38.870Z,-0.40
2023-02-06T08:13:05.784Z,-0.30
2023-02-06T08:15:32.644Z,-0.30
2023-02-06T08:17:59.450Z,-0.30
2023-02-06T08:20:26.295Z,-0.30
2023-02-06T08:22:54.548Z,-0.30
2023-02-06T08:25:21.292Z,-0.40
2023-02-06T08:27:51.667Z,-0.30
2023-02-06T08:30:18.530Z,-0.20
2023-02-06T08:32:45.264Z,-0.10
2023-02-06T08:35:12.054Z,0.10
2023-02-06T08:37:38.824Z,0.10
2023-02-06T08:40:06.008Z,-0.10
2023-02-06T08:42:32.812Z,-0.10
2023-02-06T08:44:59.491Z,-0.20
2023-02-06T08:47:26.635Z,-0.30
2023-02-06T08:49:53.434Z,-0.20
2023-02-06T08:52:20.332Z,-0.30
2023-02-06T08:54:47.278Z,-0.20
2023-02-06T08:57:14.413Z,-0.20
2023-02-06T08:59:41.202Z,0.00
2023-02-06T09:02:11.244Z,0.10
2023-02-06T09:04:38.352Z,0.30
2023-02-06T09:07:05.149Z,0.20
2023-02-06T09:09:32.036Z,0.30
2023-02-06T09:11:58.958Z,0.20
2023-02-06T09:14:25.718Z,0.10
2023-02-06T09:16:52.861Z,0.10
2023-02-06T09:19:19.614Z,0.20
2023-02-06T09:21:46.565Z,0.30
2023-02-06T09:24:13.413Z,0.30
2023-02-06T09:26:58.514Z,0.20
2023-02-06T09:29:25.822Z,0.20
2023-02-06T09:31:52.670Z,0.30
2023-02-06T09:34:19.677Z,0.40
2023-02-06T09:36:46.575Z,0.40
2023-02-06T09:39:13.460Z,0.50
2023-02-06T09:41:46.687Z,0.50
2023-02-06T09:44:22.528Z,0.50
2023-02-06T09:46:53.981Z,0.70
2023-02-06T09:49:35.526Z,0.50
2023-02-06T09:52:05.349Z,0.70
2023-02-06T09:55:10.015Z,0.50
2023-02-06T09:57:58.218Z,0.50
2023-02-06T10:01:03.207Z,0.70
2023-02-06T10:04:05.898Z,0.70
2023-02-06T10:06:51.159Z,0.70
2023-02-06T10:09:24.544Z,0.90
2023-02-06T10:11:57.006Z,1.10
2023-02-06T10:14:42.967Z,1.30
2023-02-06T10:17:19.986Z,1.30
2023-02-06T10:20:11.959Z,1.50
2023-02-06T10:23:13.400Z,1.50
2023-02-06T10:25:46.351Z,1.60
2023-02-06T10:28:24.326Z,1.60
2023-02-06T10:31:02.878Z,1.50
2023-02-06T10:33:48.751Z,1.50
2023-02-06T10:36:42.021Z,1.50
2023-02-06T10:39:39.479Z,1.50
2023-02-06T10:42:41.878Z,1.40
2023-02-06T10:45:20.225Z,1.40
2023-02-06T10:48:03.370Z,1.30
2023-02-06T10:50:41.950Z,1.50
2023-02-06T10:53:25.440Z,1.70
2023-02-06T10:56:09.587Z,1.50
2023-02-06T10:58:43.001Z,1.40
2023-02-06T11:01:25.065Z,1.10
2023-02-06T11:04:06.051Z,1.00
2023-02-06T11:06:33.822Z,1.00
2023-02-06T11:09:00.861Z,1.00
2023-02-06T11:11:36.671Z,1.00
2023-02-06T11:14:28.355Z,1.10
2023-02-06T11:16:57.811Z,1.00
2023-02-06T11:19:32.163Z,1.00
2023-02-06T11:22:01.633Z,0.90
2023-02-06T11:24:28.546Z,0.90
2023-02-06T11:27:00.676Z,0.90
2023-02-06T11:29:33.263Z,0.90
2023-02-06T11:32:05.213Z,0.80
2023-02-06T11:34:44.440Z,0.80
2023-02-06T11:37:35.692Z,0.70
2023-02-06T11:40:20.813Z,0.70
2023-02-06T11:42:53.826Z,0.70
2023-02-06T11:45:24.536Z,0.80
2023-02-06T11:47:51.824Z,0.90
2023-02-06T11:50:34.174Z,1.00
2023-02-06T11:53:15.290Z,1.10
2023-02-06T11:55:43.000Z,1.00
2023-02-06T11:58:13.218Z,0.90
2023-02-06T12:01:01.252Z,0.90
2023-02-06T12:03:33.813Z,0.60
2023-02-06T12:06:17.711Z,0.70
2023-02-06T12:08:53.569Z,0.50
2023-02-06T12:11:29.243Z,0.60
2023-02-06T12:14:21.794Z,0.80
2023-02-06T12:16:49.139Z,0.70
2023-02-06T12:19:28.708Z,0.70
2023-02-06T12:22:00.224Z,0.70
2023-02-06T12:24:38.720Z,0.70
2023-02-06T12:27:19.874Z,0.70
2023-02-06T12:30:07.651Z,0.70
2023-02-06T12:32:45.550Z,0.80
2023-02-06T12:35:20.828Z,0.80
2023-02-06T12:38:14.131Z,0.70
2023-02-06T12:41:06.620Z,0.70
2023-02-06T12:43:36.482Z,0.70
2023-02-06T12:46:13.468Z,0.60
2023-02-06T12:49:05.294Z,0.70
2023-02-06T12:51:39.907Z,0.80
2023-02-06T12:54:15.166Z,0.90
2023-02-06T12:56:54.689Z,0.80
2023-02-06T12:59:56.723Z,0.80
2023-02-06T13:02:52.400Z,0.80
2023-02-06T13:05:35.376Z,0.90
2023-02-06T13:08:11.096Z,0.90
2023-02-06T13:10:39.978Z,0.80
2023-02-06T13:13:21.444Z,0.80
2023-02-06T13:15:53.951Z,1.00
2023-02-06T13:18:39.604Z,1.00
2023-02-06T13:21:22.868Z,0.90
2023-02-06T13:24:03.483Z,0.90
2023-02-06T13:27:22.209Z,0.90
2023-02-06T13:29:50.567Z,0.80
2023-02-06T13:32:17.327Z,0.80
2023-02-06T13:34:43.935Z,0.80
2023-02-06T13:37:34.535Z,0.90
2023-02-06T13:40:19.942Z,0.90
2023-02-06T13:42:58.692Z,0.80
2023-02-06T13:45:44.568Z,0.80
2023-02-06T13:51:32.620Z,0.90
2023-02-06T13:54:21.285Z,1.00
2023-02-06T13:57:22.247Z,1.10
2023-02-06T13:59:53.305Z,1.20
2023-02-06T14:02:33.169Z,1.10
2023-02-06T14:05:02.824Z,1.10
2023-02-06T14:07:41.355Z,1.10
2023-02-06T14:10:20.400Z,1.00
2023-02-06T14:13:03.076Z,1.10
2023-02-06T14:15:49.205Z,1.20
2023-02-06T14:18:30.797Z,1.20
2023-02-06T19:08:19.971Z,0.10
2023-02-06T19:10:46.648Z,0.10
2023-02-06T19:13:13.239Z,0.00
2023-02-06T19:15:39.778Z,0.00
2023-02-06T19:18:06.481Z,0.00
2023-02-06T19:20:33.034Z,0.00
2023-02-06T19:22:59.623Z,0.00
2023-02-06T19:25:26.212Z,0.00
2023-02-06T19:27:52.801Z,0.00
2023-02-06T19:30:19.463Z,0.00
2023-02-06T19:32:46.031Z,0.00
2023-02-06T19:35:12.604Z,-0.10
2023-02-06T19:37:39.169Z,-0.10
2023-02-06T19:40:06.175Z,-0.20
2023-02-06T19:42:32.742Z,-0.20
2023-02-06T19:44:59.378Z,-0.20
2023-02-06T19:47:25.917Z,-0.30
2023-02-06T19:49:52.756Z,-0.20
2023-02-06T19:52:19.797Z,-0.30
2023-02-06T19:54:46.429Z,-0.30
2023-02-06T19:57:13.172Z,-0.40
2023-02-06T19:59:40.627Z,-0.40
2023-02-06T20:02:07.194Z,-0.40
2023-02-06T20:04:36.052Z,-0.40
2023-02-06T20:07:02.733Z,-0.50
2023-02-06T20:09:29.636Z,-0.50
2023-02-06T20:11:56.650Z,-0.50
2023-02-06T20:14:24.060Z,-0.60
2023-02-06T20:16:50.787Z,-0.60
2023-02-06T20:19:28.860Z,-0.60
2023-02-06T20:21:58.526Z,-0.70
2023-02-06T20:24:27.903Z,-0.70
2023-02-06T20:27:00.415Z,-0.80
2023-02-06T20:29:32.938Z,-0.80
2023-02-06T20:32:00.095Z,-0.80
2023-02-06T20:34:27.261Z,-0.90
2023-02-06T20:36:54.660Z,-0.90
2023-02-06T20:39:21.411Z,-0.90
2023-02-06T20:41:48.226Z,-0.90
2023-02-06T20:44:15.021Z,-1.00
2023-02-06T20:46:42.788Z,-0.90
2023-02-06T20:49:18.316Z,-1.00
2023-02-06T20:51:44.916Z,-1.00
2023-02-06T20:54:12.017Z,-1.10
2023-02-06T20:56:39.774Z,-1.10
2023-02-06T20:59:07.107Z,-1.00
2023-02-06T21:01:34.297Z,-1.00
2023-02-06T21:04:06.001Z,-1.00
2023-02-06T21:06:35.624Z,-1.00
2023-02-06T21:09:03.091Z,-0.90
2023-02-06T21:11:34.259Z,-0.90
2023-02-06T21:14:02.760Z,-0.90
2023-02-06T21:16:30.678Z,-0.90
2023-02-06T21:18:58.533Z,-0.90
2023-02-06T21:21:25.420Z,-1.00
2023-02-06T21:23:52.854Z,-1.10
2023-02-06T21:26:19.553Z,-1.10
2023-02-06T21:28:46.402Z,-1.10
2023-02-06T21:31:19.387Z,-1.20
2023-02-06T21:33:46.938Z,-1.20
2023-02-06T21:36:37.065Z,-1.20
2023-02-06T21:39:04.833Z,-1.30
2023-02-06T21:41:32.219Z,-1.30
2023-02-06T21:43:58.896Z,-1.20
2023-02-06T21:46:25.543Z,-1.10
2023-02-06T21:48:53.528Z,-1.20
2023-02-06T21:51:21.146Z,-1.30
2023-02-06T21:53:47.831Z,-1.30
2023-02-06T21:56:20.616Z,-1.30
2023-02-06T21:58:48.439Z,-1.20
2023-02-06T22:01:23.930Z,-1.00
2023-02-06T22:03:51.250Z,-1.20
2023-02-06T22:06:17.936Z,-1.40
2023-02-06T22:08:46.366Z,-1.30
2023-02-06T22:11:28.648Z,-1.40
2023-02-06T22:14:00.798Z,-1.30
2023-02-06T22:16:28.594Z,-1.30
2023-02-06T22:18:56.144Z,-1.40
2023-02-06T22:21:26.481Z,-1.20
2023-02-06T22:23:55.450Z,-1.30
2023-02-06T22:26:22.005Z,-1.50
2023-02-06T22:28:48.931Z,-1.50
2023-02-06T22:31:21.415Z,-1.60
2023-02-06T22:33:48.398Z,-1.50
2023-02-06T22:36:18.458Z,-1.40
2023-02-06T22:38:46.675Z,-1.50
2023-02-06T22:41:15.841Z,-1.60
2023-02-06T22:43:43.774Z,-1.60
2023-02-06T22:46:18.292Z,-1.60
2023-02-06T22:48:44.976Z,-1.60
2023-02-06T22:51:11.584Z,-1.70
2023-02-06T22:53:38.692Z,-1.50
2023-02-06T22:56:08.343Z,-1.60
2023-02-06T22:58:34.909Z,-1.80
2023-02-06T23:01:02.958Z,-1.80
2023-02-06T23:03:29.612Z,-1.80
2023-02-06T23:05:56.203Z,-1.80
2023-02-06T23:08:22.771Z,-1.90
2023-02-06T23:10:49.356Z,-1.90
2023-02-06T23:13:15.933Z,-2.00
2023-02-06T23:15:42.839Z,-2.10
2023-02-06T23:18:09.602Z,-1.90
2023-02-06T23:20:36.640Z,-1.90
2023-02-06T23:23:03.640Z,-2.00
2023-02-06T23:25:31.067Z,-2.10
2023-02-06T23:27:57.788Z,-2.10
2023-02-06T23:30:24.603Z,-2.10
2023-02-06T23:32:51.285Z,-2.20
2023-02-06T23:35:17.966Z,-2.20
2023-02-06T23:37:44.486Z,-2.20
2023-02-06T23:40:11.213Z,-2.10
2023-02-06T23:42:37.750Z,-2.20
2023-02-06T23:45:04.552Z,-2.10
2023-02-06T23:47:31.096Z,-2.30
2023-02-06T23:49:57.651Z,-2.30
2023-02-06T23:52:24.208Z,-2.40
2023-02-06T23:54:50.776Z,-2.40
2023-02-06T23:57:17.380Z,-2.30
2023-02-06T23:59:43.945Z,-2.30
